sensor_id;sensor_type;location;lat;lon;timestamp;pressure;altitude;pressure_sealevel;temperature;humidity
73952;BME280;62304;47.662;18.324;2023-04-25T00:01:24;99372.72;;;11.51;87.45
73952;BME280;62304;47.662;18.324;2023-04-25T00:04:27;99359.63;;;11.48;87.46
73952;BME280;62304;47.662;18.324;2023-04-25T00:07:30;99364.78;;;11.43;87.57
73952;BME280;62304;47.662;18.324;2023-04-25T00:10:34;99366.38;;;11.54;87.04
73952;BME280;62304;47.662;18.324;2023-04-25T00:13:37;99360.81;;;11.58;86.70
73952;BME280;62304;47.662;18.324;2023-04-25T00:16:44;99368.78;;;11.59;86.59
73952;BME280;62304;47.662;18.324;2023-04-25T00:19:47;99371.13;;;11.54;86.04
73952;BME280;62304;47.662;18.324;2023-04-25T00:22:50;99376.31;;;11.59;85.76
73952;BME280;62304;47.662;18.324;2023-04-25T00:25:53;99383.81;;;11.55;85.43
73952;BME280;62304;47.662;18.324;2023-04-25T00:28:56;99379.47;;;11.61;85.00
73952;BME280;62304;47.662;18.324;2023-04-25T00:31:58;99381.03;;;11.55;84.95
73952;BME280;62304;47.662;18.324;2023-04-25T00:35:01;99373.50;;;11.55;84.67
73952;BME280;62304;47.662;18.324;2023-04-25T00:38:04;99376.28;;;11.55;83.95
73952;BME280;62304;47.662;18.324;2023-04-25T00:41:07;99365.16;;;11.55;83.67
73952;BME280;62304;47.662;18.324;2023-04-25T00:44:11;99365.97;;;11.49;82.59
73952;BME280;62304;47.662;18.324;2023-04-25T00:47:15;99367.56;;;11.53;82.92
73952;BME280;62304;47.662;18.324;2023-04-25T00:50:18;99364.78;;;11.53;82.05
73952;BME280;62304;47.662;18.324;2023-04-25T00:53:22;99365.19;;;11.52;81.59
73952;BME280;62304;47.662;18.324;2023-04-25T00:56:24;99368.34;;;11.54;81.64
73952;BME280;62304;47.662;18.324;2023-04-25T00:59:28;99362.78;;;11.54;81.37
73952;BME280;62304;47.662;18.324;2023-04-25T01:06:24;99356.84;;;11.55;80.24
73952;BME280;62304;47.662;18.324;2023-04-25T01:09:27;99346.53;;;11.52;80.39
73952;BME280;62304;47.662;18.324;2023-04-25T01:12:30;99346.53;;;11.52;79.97
73952;BME280;62304;47.662;18.324;2023-04-25T01:15:33;99354.09;;;11.48;79.52
73952;BME280;62304;47.662;18.324;2023-04-25T01:18:41;99349.72;;;11.54;79.00
73952;BME280;62304;47.662;18.324;2023-04-25T01:21:45;99347.31;;;11.56;78.89
73952;BME280;62304;47.662;18.324;2023-04-25T01:24:48;99356.06;;;11.51;78.44
73952;BME280;62304;47.662;18.324;2023-04-25T01:27:51;99351.31;;;11.48;77.50
73952;BME280;62304;47.662;18.324;2023-04-25T01:30:54;99347.34;;;11.49;76.47
73952;BME280;62304;47.662;18.324;2023-04-25T01:33:58;99346.13;;;11.57;76.23
73952;BME280;62304;47.662;18.324;2023-04-25T01:37:03;99344.56;;;11.60;75.60
73952;BME280;62304;47.662;18.324;2023-04-25T01:40:07;99343.78;;;11.59;74.84
73952;BME280;62304;47.662;18.324;2023-04-25T01:43:10;99345.75;;;11.62;74.61
73952;BME280;62304;47.662;18.324;2023-04-25T01:46:14;99352.47;;;11.58;74.35
73952;BME280;62304;47.662;18.324;2023-04-25T01:49:18;99356.84;;;11.62;74.71
73952;BME280;62304;47.662;18.324;2023-04-25T01:52:21;99353.25;;;11.58;74.63
73952;BME280;62304;47.662;18.324;2023-04-25T01:55:26;99358.44;;;11.60;73.77
73952;BME280;62304;47.662;18.324;2023-04-25T01:58:30;99360.03;;;11.50;74.43
73952;BME280;62304;47.662;18.324;2023-04-25T02:01:35;99367.56;;;11.46;75.03
73952;BME280;62304;47.662;18.324;2023-04-25T02:04:38;99370.34;;;11.39;75.71
73952;BME280;62304;47.662;18.324;2023-04-25T02:07:42;99364.84;;;11.29;76.42
73952;BME280;62304;47.662;18.324;2023-04-25T02:10:46;99361.66;;;11.20;77.07
73952;BME280;62304;47.662;18.324;2023-04-25T02:13:48;99364.44;;;11.09;78.70
73952;BME280;62304;47.662;18.324;2023-04-25T02:16:52;99361.69;;;11.09;78.45
73952;BME280;62304;47.662;18.324;2023-04-25T02:19:54;99358.09;;;11.02;78.99
73952;BME280;62304;47.662;18.324;2023-04-25T02:22:58;99358.13;;;10.98;78.95
73952;BME280;62304;47.662;18.324;2023-04-25T02:26:02;99361.66;;;11.02;78.89
73952;BME280;62304;47.662;18.324;2023-04-25T02:29:05;99360.87;;;10.98;79.00
73952;BME280;62304;47.662;18.324;2023-04-25T02:32:08;99365.25;;;11.03;78.63
73952;BME280;62304;47.662;18.324;2023-04-25T02:35:11;99369.97;;;11.02;78.64
73952;BME280;62304;47.662;18.324;2023-04-25T02:38:13;99359.28;;;11.01;78.62
73952;BME280;62304;47.662;18.324;2023-04-25T02:41:16;99359.28;;;10.97;78.35
73952;BME280;62304;47.662;18.324;2023-04-25T02:44:19;99356.09;;;11.02;78.32
73952;BME280;62304;47.662;18.324;2023-04-25T02:47:22;99358.09;;;11.02;78.60
73952;BME280;62304;47.662;18.324;2023-04-25T02:50:26;99353.72;;;10.97;78.56
73952;BME280;62304;47.662;18.324;2023-04-25T02:53:29;99353.34;;;10.92;78.23
73952;BME280;62304;47.662;18.324;2023-04-25T02:56:31;99349.75;;;10.95;78.06
73952;BME280;62304;47.662;18.324;2023-04-25T02:59:34;99346.59;;;10.89;78.14
73952;BME280;62304;47.662;18.324;2023-04-25T03:02:37;99343.44;;;10.94;77.28
73952;BME280;62304;47.662;18.324;2023-04-25T03:05:40;99349.38;;;10.89;77.53
73952;BME280;62304;47.662;18.324;2023-04-25T03:08:43;99345.03;;;10.92;77.33
73952;BME280;62304;47.662;18.324;2023-04-25T03:11:46;99351.38;;;10.96;77.07
73952;BME280;62304;47.662;18.324;2023-04-25T03:14:49;99347.38;;;10.90;76.99
73952;BME280;62304;47.662;18.324;2023-04-25T03:17:52;99359.28;;;10.90;77.02
73952;BME280;62304;47.662;18.324;2023-04-25T03:20:55;99355.31;;;10.91;77.07
73952;BME280;62304;47.662;18.324;2023-04-25T03:24:00;99354.91;;;10.79;77.40
73952;BME280;62304;47.662;18.324;2023-04-25T03:27:03;99349.38;;;10.79;77.35
73952;BME280;62304;47.662;18.324;2023-04-25T03:30:06;99356.91;;;10.78;78.31
73952;BME280;62304;47.662;18.324;2023-04-25T03:33:10;99360.87;;;10.77;77.70
73952;BME280;62304;47.662;18.324;2023-04-25T03:36:13;99356.09;;;10.64;78.00
73952;BME280;62304;47.662;18.324;2023-04-25T03:39:17;99357.69;;;10.61;78.33
73952;BME280;62304;47.662;18.324;2023-04-25T03:42:20;99367.97;;;10.54;79.16
73952;BME280;62304;47.662;18.324;2023-04-25T03:45:25;99357.62;;;10.40;79.92
73952;BME280;62304;47.662;18.324;2023-04-25T03:48:28;99361.59;;;10.36;80.57
73952;BME280;62304;47.662;18.324;2023-04-25T03:51:31;99363.16;;;10.33;80.81
73952;BME280;62304;47.662;18.324;2023-04-25T03:54:34;99372.69;;;10.36;81.06
73952;BME280;62304;47.662;18.324;2023-04-25T03:57:37;99365.53;;;10.31;81.15
73952;BME280;62304;47.662;18.324;2023-04-25T04:00:40;99375.41;;;10.22;82.14
73952;BME280;62304;47.662;18.324;2023-04-25T04:03:43;99376.22;;;10.22;81.68
73952;BME280;62304;47.662;18.324;2023-04-25T04:06:46;99373.81;;;10.17;81.79
73952;BME280;62304;47.662;18.324;2023-04-25T04:09:49;99383.69;;;10.15;81.97
73952;BME280;62304;47.662;18.324;2023-04-25T04:12:53;99384.09;;;10.17;81.93
73952;BME280;62304;47.662;18.324;2023-04-25T04:15:56;99377.34;;;10.14;81.89
73952;BME280;62304;47.662;18.324;2023-04-25T04:18:58;99392.00;;;10.11;82.33
73952;BME280;62304;47.662;18.324;2023-04-25T04:22:02;99382.09;;;10.10;82.51
73952;BME280;62304;47.662;18.324;2023-04-25T04:25:05;99391.56;;;10.09;82.48
73952;BME280;62304;47.662;18.324;2023-04-25T04:28:10;99384.47;;;10.08;83.25
73952;BME280;62304;47.662;18.324;2023-04-25T04:31:13;99385.59;;;10.00;83.50
73952;BME280;62304;47.662;18.324;2023-04-25T04:34:19;99381.19;;;9.96;83.93
73952;BME280;62304;47.662;18.324;2023-04-25T04:37:22;99383.59;;;9.97;84.09
73952;BME280;62304;47.662;18.324;2023-04-25T04:40:25;99392.28;;;9.96;84.67
73952;BME280;62304;47.662;18.324;2023-04-25T04:43:28;99393.91;;;10.00;84.41
73952;BME280;62304;47.662;18.324;2023-04-25T04:46:32;99389.56;;;9.99;84.70
73952;BME280;62304;47.662;18.324;2023-04-25T04:49:42;99393.94;;;10.04;84.58
73952;BME280;62304;47.662;18.324;2023-04-25T04:52:46;99391.56;;;10.06;84.77
73952;BME280;62304;47.662;18.324;2023-04-25T04:55:49;99388.03;;;10.12;84.48
73952;BME280;62304;47.662;18.324;2023-04-25T04:58:54;99394.41;;;10.16;83.86
73952;BME280;62304;47.662;18.324;2023-04-25T05:01:57;99390.47;;;10.28;82.96
73952;BME280;62304;47.662;18.324;2023-04-25T05:05:00;99384.94;;;10.35;82.75
73952;BME280;62304;47.662;18.324;2023-04-25T05:08:03;99387.75;;;10.42;81.97
73952;BME280;62304;47.662;18.324;2023-04-25T05:11:07;99390.13;;;10.47;81.40
73952;BME280;62304;47.662;18.324;2023-04-25T05:14:10;99393.31;;;10.59;81.45
73952;BME280;62304;47.662;18.324;2023-04-25T05:17:31;99385.81;;;10.60;79.63
73952;BME280;62304;47.662;18.324;2023-04-25T05:20:35;99396.50;;;10.61;79.76
73952;BME280;62304;47.662;18.324;2023-04-25T05:23:39;99392.13;;;10.57;80.10
73952;BME280;62304;47.662;18.324;2023-04-25T05:26:42;99386.19;;;10.62;80.00
73952;BME280;62304;47.662;18.324;2023-04-25T05:29:45;99389.34;;;10.50;79.65
73952;BME280;62304;47.662;18.324;2023-04-25T05:32:49;99396.06;;;10.42;80.38
73952;BME280;62304;47.662;18.324;2023-04-25T05:35:51;99392.47;;;10.34;80.78
73952;BME280;62304;47.662;18.324;2023-04-25T05:38:54;99394.81;;;10.25;81.38
73952;BME280;62304;47.662;18.324;2023-04-25T05:41:58;99398.31;;;10.15;82.50
73952;BME280;62304;47.662;18.324;2023-04-25T05:45:02;99395.16;;;10.17;82.33
73952;BME280;62304;47.662;18.324;2023-04-25T05:48:05;99392.78;;;10.12;83.55
73952;BME280;62304;47.662;18.324;2023-04-25T05:51:08;99390.00;;;10.05;84.62
73952;BME280;62304;47.662;18.324;2023-04-25T05:54:11;99392.00;;;10.15;84.83
73952;BME280;62304;47.662;18.324;2023-04-25T05:57:24;99386.09;;;10.27;84.47
73952;BME280;62304;47.662;18.324;2023-04-25T06:00:27;99392.84;;;10.22;84.68
73952;BME280;62304;47.662;18.324;2023-04-25T06:03:30;99394.06;;;10.35;84.17
73952;BME280;62304;47.662;18.324;2023-04-25T06:06:33;99391.72;;;10.41;83.81
73952;BME280;62304;47.662;18.324;2023-04-25T06:09:36;99390.53;;;10.45;83.43
73952;BME280;62304;47.662;18.324;2023-04-25T06:12:41;99398.84;;;10.56;82.79
73952;BME280;62304;47.662;18.324;2023-04-25T06:15:44;99386.22;;;10.65;82.44
73952;BME280;62304;47.662;18.324;2023-04-25T06:18:47;99386.22;;;10.79;82.27
73952;BME280;62304;47.662;18.324;2023-04-25T06:21:50;99387.03;;;10.83;81.98
73952;BME280;62304;47.662;18.324;2023-04-25T06:24:54;99387.44;;;10.96;81.59
73952;BME280;62304;47.662;18.324;2023-04-25T06:27:59;99385.03;;;11.08;81.52
73952;BME280;62304;47.662;18.324;2023-04-25T06:31:02;99387.03;;;11.08;80.71
73952;BME280;62304;47.662;18.324;2023-04-25T06:34:05;99383.87;;;11.09;79.57
73952;BME280;62304;47.662;18.324;2023-04-25T06:37:09;99388.59;;;11.23;79.46
73952;BME280;62304;47.662;18.324;2023-04-25T06:40:12;99393.00;;;11.24;79.06
73952;BME280;62304;47.662;18.324;2023-04-25T06:43:15;99390.19;;;11.48;78.72
73952;BME280;62304;47.662;18.324;2023-04-25T06:46:18;99387.00;;;11.57;78.05
73952;BME280;62304;47.662;18.324;2023-04-25T06:49:21;99390.19;;;11.48;77.12
73952;BME280;62304;47.662;18.324;2023-04-25T06:52:25;99384.63;;;11.48;77.05
73952;BME280;62304;47.662;18.324;2023-04-25T06:55:28;99380.25;;;11.47;77.37
73952;BME280;62304;47.662;18.324;2023-04-25T06:58:32;99392.94;;;11.62;77.25
73952;BME280;62304;47.662;18.324;2023-04-25T07:01:34;99384.25;;;11.60;77.62
73952;BME280;62304;47.662;18.324;2023-04-25T07:04:38;99386.63;;;11.44;78.28
73952;BME280;62304;47.662;18.324;2023-04-25T07:07:41;99385.44;;;11.31;78.64
73952;BME280;62304;47.662;18.324;2023-04-25T07:10:44;99381.88;;;11.31;78.49
73952;BME280;62304;47.662;18.324;2023-04-25T07:13:51;99383.06;;;11.23;79.24
73952;BME280;62304;47.662;18.324;2023-04-25T07:16:54;99380.69;;;11.25;78.38
73952;BME280;62304;47.662;18.324;2023-04-25T07:19:59;99388.63;;;11.33;77.78
73952;BME280;62304;47.662;18.324;2023-04-25T07:23:02;99376.31;;;11.34;77.47
73952;BME280;62304;47.662;18.324;2023-04-25T07:26:06;99375.91;;;11.53;76.56
73952;BME280;62304;47.662;18.324;2023-04-25T07:29:09;99366.75;;;11.67;76.00
73952;BME280;62304;47.662;18.324;2023-04-25T07:32:12;99378.66;;;11.64;76.28
73952;BME280;62304;47.662;18.324;2023-04-25T07:35:17;99383.41;;;11.77;75.48
73952;BME280;62304;47.662;18.324;2023-04-25T07:38:20;99380.19;;;11.89;75.15
73952;BME280;62304;47.662;18.324;2023-04-25T07:41:23;99380.91;;;12.04;74.46
73952;BME280;62304;47.662;18.324;2023-04-25T07:44:26;99388.47;;;12.00;74.58
73952;BME280;62304;47.662;18.324;2023-04-25T07:47:29;99381.31;;;12.02;73.70
73952;BME280;62304;47.662;18.324;2023-04-25T07:50:32;99378.84;;;12.25;73.18
73952;BME280;62304;47.662;18.324;2023-04-25T07:53:35;99385.91;;;12.40;72.62
73952;BME280;62304;47.662;18.324;2023-04-25T07:56:40;99385.19;;;12.26;72.43
73952;BME280;62304;47.662;18.324;2023-04-25T07:59:54;99373.56;;;12.48;72.57
73952;BME280;62304;47.662;18.324;2023-04-25T08:02:58;99376.22;;;12.69;71.70
73952;BME280;62304;47.662;18.324;2023-04-25T08:06:01;99383.25;;;12.84;71.00
73952;BME280;62304;47.662;18.324;2023-04-25T08:09:11;99377.75;;;13.28;69.86
73952;BME280;62304;47.662;18.324;2023-04-25T08:12:14;99370.06;;;13.43;68.44
73952;BME280;62304;47.662;18.324;2023-04-25T08:15:19;99365.31;;;13.40;68.35
73952;BME280;62304;47.662;18.324;2023-04-25T08:18:22;99352.50;;;13.49;68.29
73952;BME280;62304;47.662;18.324;2023-04-25T08:21:25;99367.47;;;13.66;67.94
73952;BME280;62304;47.662;18.324;2023-04-25T08:24:31;99374.94;;;13.72;67.30
73952;BME280;62304;47.662;18.324;2023-04-25T08:27:33;99368.09;;;13.80;66.87
73952;BME280;62304;47.662;18.324;2023-04-25T08:30:37;99376.66;;;13.96;66.16
73952;BME280;62304;47.662;18.324;2023-04-25T08:33:41;99366.84;;;14.18;65.13
73952;BME280;62304;47.662;18.324;2023-04-25T08:36:45;99370.53;;;14.42;63.96
73952;BME280;62304;47.662;18.324;2023-04-25T08:39:48;99371.56;;;14.81;62.26
73952;BME280;62304;47.662;18.324;2023-04-25T08:42:56;99370.63;;;15.14;61.91
73952;BME280;62304;47.662;18.324;2023-04-25T08:46:00;99379.53;;;15.06;60.48
73952;BME280;62304;47.662;18.324;2023-04-25T08:49:04;99368.22;;;14.90;60.97
73952;BME280;62304;47.662;18.324;2023-04-25T08:52:08;99371.97;;;15.29;60.77
73952;BME280;62304;47.662;18.324;2023-04-25T08:55:15;99380.22;;;15.13;59.55
73952;BME280;62304;47.662;18.324;2023-04-25T08:58:18;99377.38;;;14.37;59.77
73952;BME280;62304;47.662;18.324;2023-04-25T09:01:22;99376.34;;;14.24;61.31
73952;BME280;62304;47.662;18.324;2023-04-25T09:04:25;99381.03;;;13.97;61.90
73952;BME280;62304;47.662;18.324;2023-04-25T09:07:30;99365.25;;;14.21;61.40
73952;BME280;62304;47.662;18.324;2023-04-25T09:10:33;99379.91;;;14.25;62.18
73952;BME280;62304;47.662;18.324;2023-04-25T09:13:36;99372.88;;;14.13;61.58
73952;BME280;62304;47.662;18.324;2023-04-25T09:17:02;99378.88;;;14.12;60.75
73952;BME280;62304;47.662;18.324;2023-04-25T09:20:13;99386.78;;;14.47;60.54
73952;BME280;62304;47.662;18.324;2023-04-25T09:23:16;99385.75;;;14.37;61.01
73952;BME280;62304;47.662;18.324;2023-04-25T09:26:22;99388.72;;;14.53;60.42
73952;BME280;62304;47.662;18.324;2023-04-25T09:29:35;99383.47;;;14.85;59.62
73952;BME280;62304;47.662;18.324;2023-04-25T09:32:44;99379.97;;;15.04;59.87
73952;BME280;62304;47.662;18.324;2023-04-25T09:35:48;99375.87;;;15.58;57.50
73952;BME280;62304;47.662;18.324;2023-04-25T09:38:59;99382.66;;;15.80;57.21
73952;BME280;62304;47.662;18.324;2023-04-25T09:42:04;99382.44;;;15.91;55.88
73952;BME280;62304;47.662;18.324;2023-04-25T09:45:07;99386.31;;;16.75;54.67
73952;BME280;62304;47.662;18.324;2023-04-25T09:48:16;99384.75;;;17.70;52.59
73952;BME280;62304;47.662;18.324;2023-04-25T09:51:25;99391.06;;;17.74;52.41
73952;BME280;62304;47.662;18.324;2023-04-25T09:54:30;99388.81;;;17.53;51.98
73952;BME280;62304;47.662;18.324;2023-04-25T09:57:35;99390.28;;;17.73;51.13
73952;BME280;62304;47.662;18.324;2023-04-25T10:00:39;99384.37;;;17.39;51.95
73952;BME280;62304;47.662;18.324;2023-04-25T10:03:47;99382.94;;;17.15;53.06
73952;BME280;62304;47.662;18.324;2023-04-25T10:06:54;99380.16;;;17.31;52.48
73952;BME280;62304;47.662;18.324;2023-04-25T10:10:00;99383.37;;;16.62;54.76
73952;BME280;62304;47.662;18.324;2023-04-25T10:13:05;99388.50;;;16.28;55.00
73952;BME280;62304;47.662;18.324;2023-04-25T10:16:09;99377.56;;;16.53;53.87
73952;BME280;62304;47.662;18.324;2023-04-25T10:19:11;99369.78;;;16.96;53.09
73952;BME280;62304;47.662;18.324;2023-04-25T10:22:39;99381.09;;;17.09;53.49
73952;BME280;62304;47.662;18.324;2023-04-25T10:25:44;99374.91;;;17.78;49.33
73952;BME280;62304;47.662;18.324;2023-04-25T10:28:58;99381.56;;;18.12;48.49
73952;BME280;62304;47.662;18.324;2023-04-25T10:32:02;99370.16;;;18.85;46.96
73952;BME280;62304;47.662;18.324;2023-04-25T10:35:19;99367.28;;;19.26;45.96
73952;BME280;62304;47.662;18.324;2023-04-25T10:38:26;99366.00;;;19.40;46.11
73952;BME280;62304;47.662;18.324;2023-04-25T10:41:29;99360.78;;;20.18;44.51
73952;BME280;62304;47.662;18.324;2023-04-25T10:44:32;99367.19;;;21.23;42.44
73952;BME280;62304;47.662;18.324;2023-04-25T10:47:36;99371.41;;;21.27;41.02
73952;BME280;62304;47.662;18.324;2023-04-25T10:50:39;99361.94;;;21.03;41.58
73952;BME280;62304;47.662;18.324;2023-04-25T10:53:47;99376.66;;;21.07;40.30
73952;BME280;62304;47.662;18.324;2023-04-25T10:56:58;99377.47;;;21.08;39.50
73952;BME280;62304;47.662;18.324;2023-04-25T11:03:07;99360.97;;;19.22;42.90
73952;BME280;62304;47.662;18.324;2023-04-25T11:06:23;99373.59;;;19.98;42.02
73952;BME280;62304;47.662;18.324;2023-04-25T11:09:30;99362.06;;;20.05;41.64
73952;BME280;62304;47.662;18.324;2023-04-25T11:12:33;99371.31;;;19.25;43.65
73952;BME280;62304;47.662;18.324;2023-04-25T11:15:35;99369.94;;;19.17;43.55
73952;BME280;62304;47.662;18.324;2023-04-25T11:18:43;99368.34;;;19.87;41.87
73952;BME280;62304;47.662;18.324;2023-04-25T11:21:46;99372.50;;;19.49;42.52
73952;BME280;62304;47.662;18.324;2023-04-25T11:24:50;99379.62;;;18.91;43.79
73952;BME280;62304;47.662;18.324;2023-04-25T11:27:54;99386.38;;;18.94;43.07
73952;BME280;62304;47.662;18.324;2023-04-25T11:30:58;99384.13;;;19.01;41.27
73952;BME280;62304;47.662;18.324;2023-04-25T11:34:01;99380.62;;;18.72;41.47
73952;BME280;62304;47.662;18.324;2023-04-25T11:37:05;99390.56;;;18.36;43.82
73952;BME280;62304;47.662;18.324;2023-04-25T11:40:09;99386.81;;;19.17;40.90
73952;BME280;62304;47.662;18.324;2023-04-25T11:43:12;99377.94;;;20.54;38.46
73952;BME280;62304;47.662;18.324;2023-04-25T11:46:15;99376.94;;;19.38;39.76
73952;BME280;62304;47.662;18.324;2023-04-25T11:49:18;99385.13;;;18.29;41.14
73952;BME280;62304;47.662;18.324;2023-04-25T11:52:21;99371.72;;;18.49;40.94
73952;BME280;62304;47.662;18.324;2023-04-25T11:55:24;99357.81;;;19.20;39.66
73952;BME280;62304;47.662;18.324;2023-04-25T11:58:27;99355.75;;;19.79;39.51
73952;BME280;62304;47.662;18.324;2023-04-25T12:01:38;99359.75;;;20.25;38.16
73952;BME280;62304;47.662;18.324;2023-04-25T12:04:41;99349.53;;;19.63;38.75
73952;BME280;62304;47.662;18.324;2023-04-25T12:07:44;99347.69;;;20.46;38.43
73952;BME280;62304;47.662;18.324;2023-04-25T12:10:47;99348.75;;;19.50;39.88
73952;BME280;62304;47.662;18.324;2023-04-25T12:13:54;99358.78;;;18.39;41.46
73952;BME280;62304;47.662;18.324;2023-04-25T12:16:59;99346.31;;;17.70;43.77
73952;BME280;62304;47.662;18.324;2023-04-25T12:20:09;99350.78;;;17.68;43.03
73952;BME280;62304;47.662;18.324;2023-04-25T12:23:13;99357.66;;;18.36;42.61
73952;BME280;62304;47.662;18.324;2023-04-25T12:26:18;99354.50;;;19.47;41.07
73952;BME280;62304;47.662;18.324;2023-04-25T12:29:25;99354.59;;;20.54;38.85
73952;BME280;62304;47.662;18.324;2023-04-25T12:32:33;99346.84;;;20.15;38.28
73952;BME280;62304;47.662;18.324;2023-04-25T12:35:36;99354.94;;;21.17;37.10
73952;BME280;62304;47.662;18.324;2023-04-25T12:38:40;99338.94;;;21.14;37.69
73952;BME280;62304;47.662;18.324;2023-04-25T12:41:44;99331.19;;;21.54;36.18
73952;BME280;62304;47.662;18.324;2023-04-25T12:44:53;99329.03;;;21.76;36.51
73952;BME280;62304;47.662;18.324;2023-04-25T12:47:56;99333.34;;;21.32;37.29
73952;BME280;62304;47.662;18.324;2023-04-25T12:50:59;99331.47;;;20.07;38.35
73952;BME280;62304;47.662;18.324;2023-04-25T12:54:03;99337.94;;;19.61;39.68
73952;BME280;62304;47.662;18.324;2023-04-25T12:57:06;99337.44;;;18.41;41.54
73952;BME280;62304;47.662;18.324;2023-04-25T13:00:10;99342.66;;;17.86;45.16
73952;BME280;62304;47.662;18.324;2023-04-25T13:03:12;99349.22;;;17.35;50.15
73952;BME280;62304;47.662;18.324;2023-04-25T13:06:17;99350.97;;;17.13;49.66
73952;BME280;62304;47.662;18.324;2023-04-25T13:09:20;99355.91;;;17.41;48.03
73952;BME280;62304;47.662;18.324;2023-04-25T13:12:23;99350.91;;;18.05;46.14
73952;BME280;62304;47.662;18.324;2023-04-25T13:15:26;99333.81;;;18.00;45.12
73952;BME280;62304;47.662;18.324;2023-04-25T13:18:30;99333.81;;;17.87;45.20
73952;BME280;62304;47.662;18.324;2023-04-25T13:21:33;99333.47;;;17.69;44.96
73952;BME280;62304;47.662;18.324;2023-04-25T13:24:36;99333.59;;;17.66;44.82
73952;BME280;62304;47.662;18.324;2023-04-25T13:27:38;99337.47;;;18.13;43.93
73952;BME280;62304;47.662;18.324;2023-04-25T13:30:43;99330.16;;;17.74;43.98
73952;BME280;62304;47.662;18.324;2023-04-25T13:33:46;99334.53;;;17.75;44.38
73952;BME280;62304;47.662;18.324;2023-04-25T13:36:49;99336.41;;;17.50;44.73
73952;BME280;62304;47.662;18.324;2023-04-25T13:39:52;99341.41;;;16.78;47.28
73952;BME280;62304;47.662;18.324;2023-04-25T13:42:56;99330.63;;;16.77;46.97
73952;BME280;62304;47.662;18.324;2023-04-25T13:45:59;99326.34;;;16.72;47.13
73952;BME280;62304;47.662;18.324;2023-04-25T13:49:02;99333.47;;;16.93;46.74
73952;BME280;62304;47.662;18.324;2023-04-25T13:52:14;99331.91;;;17.40;46.23
73952;BME280;62304;47.662;18.324;2023-04-25T13:55:17;99339.09;;;17.69;45.37
73952;BME280;62304;47.662;18.324;2023-04-25T13:58:20;99342.38;;;17.36;45.63
73952;BME280;62304;47.662;18.324;2023-04-25T14:01:23;99343.88;;;17.08;46.58
73952;BME280;62304;47.662;18.324;2023-04-25T14:04:27;99344.81;;;16.70;47.74
73952;BME280;62304;47.662;18.324;2023-04-25T14:07:30;99338.22;;;16.44;47.70
73952;BME280;62304;47.662;18.324;2023-04-25T14:10:34;99347.22;;;16.13;49.47
73952;BME280;62304;47.662;18.324;2023-04-25T14:13:37;99349.31;;;15.70;51.45
73952;BME280;62304;47.662;18.324;2023-04-25T14:16:41;99351.69;;;15.25;52.68
73952;BME280;62304;47.662;18.324;2023-04-25T14:19:43;99369.94;;;15.07;55.63
73952;BME280;62304;47.662;18.324;2023-04-25T14:22:48;99380.41;;;14.50;59.50
73952;BME280;62304;47.662;18.324;2023-04-25T14:25:51;99393.34;;;14.00;62.32
73952;BME280;62304;47.662;18.324;2023-04-25T14:28:53;99402.38;;;13.33;63.89
73952;BME280;62304;47.662;18.324;2023-04-25T14:31:57;99404.81;;;12.70;70.37
73952;BME280;62304;47.662;18.324;2023-04-25T14:35:01;99416.16;;;12.35;70.98
73952;BME280;62304;47.662;18.324;2023-04-25T14:38:03;99411.53;;;11.97;72.74
73952;BME280;62304;47.662;18.324;2023-04-25T14:41:09;99430.56;;;11.91;72.22
73952;BME280;62304;47.662;18.324;2023-04-25T14:44:11;99422.28;;;11.77;76.31
73952;BME280;62304;47.662;18.324;2023-04-25T14:47:14;99414.34;;;11.86;75.77
73952;BME280;62304;47.662;18.324;2023-04-25T14:50:18;99416.59;;;12.16;75.50
73952;BME280;62304;47.662;18.324;2023-04-25T14:53:20;99416.91;;;12.35;74.66
73952;BME280;62304;47.662;18.324;2023-04-25T14:56:23;99412.13;;;12.39;75.47
73952;BME280;62304;47.662;18.324;2023-04-25T14:59:29;99406.53;;;12.46;73.84
73952;BME280;62304;47.662;18.324;2023-04-25T15:02:32;99407.37;;;12.40;75.09
73952;BME280;62304;47.662;18.324;2023-04-25T15:05:37;99395.03;;;12.44;74.29
73952;BME280;62304;47.662;18.324;2023-04-25T15:08:40;99406.66;;;12.25;75.83
73952;BME280;62304;47.662;18.324;2023-04-25T15:11:43;99412.59;;;12.27;74.65
73952;BME280;62304;47.662;18.324;2023-04-25T15:14:46;99409.91;;;12.03;77.84
73952;BME280;62304;47.662;18.324;2023-04-25T15:17:49;99389.16;;;12.28;75.90
73952;BME280;62304;47.662;18.324;2023-04-25T15:20:52;99388.72;;;12.37;76.27
73952;BME280;62304;47.662;18.324;2023-04-25T15:23:56;99390.50;;;12.71;74.61
73952;BME280;62304;47.662;18.324;2023-04-25T15:26:59;99383.56;;;13.00;73.23
73952;BME280;62304;47.662;18.324;2023-04-25T15:30:02;99388.59;;;13.19;72.23
73952;BME280;62304;47.662;18.324;2023-04-25T15:33:05;99380.44;;;13.42;70.43
73952;BME280;62304;47.662;18.324;2023-04-25T15:36:08;99376.56;;;13.70;69.68
73952;BME280;62304;47.662;18.324;2023-04-25T15:39:12;99375.28;;;13.78;67.38
73952;BME280;62304;47.662;18.324;2023-04-25T15:42:15;99363.63;;;13.86;66.87
73952;BME280;62304;47.662;18.324;2023-04-25T15:45:20;99362.28;;;14.01;66.68
73952;BME280;62304;47.662;18.324;2023-04-25T15:48:24;99357.69;;;14.18;67.10
73952;BME280;62304;47.662;18.324;2023-04-25T15:51:26;99370.03;;;14.17;66.13
73952;BME280;62304;47.662;18.324;2023-04-25T15:54:30;99367.34;;;14.10;66.08
73952;BME280;62304;47.662;18.324;2023-04-25T15:57:33;99364.25;;;14.01;65.67
73952;BME280;62304;47.662;18.324;2023-04-25T16:00:38;99371.16;;;13.89;65.02
73952;BME280;62304;47.662;18.324;2023-04-25T16:03:42;99360.00;;;13.89;64.52
73952;BME280;62304;47.662;18.324;2023-04-25T16:06:45;99370.84;;;13.84;64.22
73952;BME280;62304;47.662;18.324;2023-04-25T16:09:47;99366.16;;;13.74;63.51